Time;durP1;ratioP1;P1;durP2;ratioP2;P2;SDS_P1;SDS_P2;PMS_P1;PMS_P2;Temp;Humidity;BMP_temperature;BMP_pressure;BME280_temperature;BME280_humidity;BME280_pressure;Samples;Min_cycle;Max_cycle;Signal;HPM_P1;HPM_P2
2022/05/13 00:00:16;;;;;;;6.78;4.22;;;;;;;18.12;48.07;94979.25;4126515;28;20257;-55
2022/05/13 00:02:17;;;;;;;;;;;;;;;18.08;48.11;94977.22;4136920;28;20192;-54
2022/05/13 00:04:20;;;;;;;7.38;4.57;;;;;;;17.97;48.93;94981.25;4142612;28;20238;-56
2022/05/13 00:06:21;;;;;;;9.13;4.32;;;;;;;17.85;49.38;94980.97;4143040;28;20143;-53
2022/05/13 00:08:23;;;;;;;6.53;4.43;;;;;;;17.77;49.49;94978.47;4141493;28;20120;-55
2022/05/13 00:10:25;;;;;;;11.38;4.95;;;;;;;17.74;49.24;94976.22;4142465;28;20148;-56
2022/05/13 00:12:29;;;;;;;7.32;4.40;;;;;;;17.62;49.03;94983.91;4142440;28;20054;-57
2022/05/13 00:14:30;;;;;;;;;;;;;;;17.33;49.35;94980.47;4142784;28;20061;-52
2022/05/13 00:16:35;;;;;;;5.13;4.07;;;;;;;17.12;49.71;94981.34;4142474;28;19921;-55
2022/05/13 00:18:37;;;;;;;6.82;4.43;;;;;;;16.84;49.64;94976.03;4141981;28;20042;-55
2022/05/13 00:20:39;;;;;;;8.57;4.57;;;;;;;16.64;50.43;94983.75;4142154;28;20084;-54
2022/05/13 00:22:48;;;;;;;9.20;4.38;;;;;;;16.69;50.69;94978.75;4140824;28;20050;-57
2022/05/13 00:24:53;;;;;;;6.65;4.00;;;;;;;16.84;50.80;94981.31;4140745;28;20522;-56
2022/05/13 00:26:55;;;;;;;7.20;4.18;;;;;;;16.99;50.33;94979.44;4142162;28;20088;-56
2022/05/13 00:28:57;;;;;;;7.35;4.05;;;;;;;17.11;50.09;94977.06;4141019;28;20046;-55
2022/05/13 00:31:01;;;;;;;6.57;4.20;;;;;;;17.24;48.93;94983.47;4142598;28;20160;-55
2022/05/13 00:33:03;;;;;;;7.20;4.00;;;;;;;17.26;48.76;94973.50;4141944;28;20050;-60
2022/05/13 00:35:06;;;;;;;5.60;4.13;;;;;;;17.15;49.23;94982.78;4142111;28;20489;-53
2022/05/13 00:37:08;;;;;;;5.82;4.28;;;;;;;17.17;49.04;94978.94;4141892;28;20062;-54
2022/05/13 00:39:10;;;;;;;7.82;4.10;;;;;;;17.15;49.30;94980.97;4140120;28;20145;-51
2022/05/13 00:41:12;;;;;;;8.73;3.95;;;;;;;17.18;49.17;94985.03;4142030;28;20097;-54
2022/05/13 00:43:35;;;;;;;5.50;3.72;;;;;;;17.21;49.42;94976.72;4140249;28;20502;-55
2022/05/13 00:45:37;;;;;;;6.90;4.20;;;;;;;17.23;49.04;94987.94;4142068;28;20053;-54
2022/05/13 00:47:40;;;;;;;6.35;4.00;;;;;;;17.28;48.59;94984.72;4141948;28;20462;-52
2022/05/13 00:49:43;;;;;;;8.90;4.22;;;;;;;17.29;48.40;94981.84;4142192;28;20482;-54
2022/05/13 00:51:45;;;;;;;4.78;3.80;;;;;;;17.32;48.23;94983.31;4142148;28;20062;-54
2022/05/13 00:53:47;;;;;;;8.25;4.25;;;;;;;17.36;48.22;94979.28;4140418;28;20054;-53
2022/05/13 00:55:49;;;;;;;8.18;3.95;;;;;;;17.39;48.10;94984.16;4142024;28;20510;-55
2022/05/13 00:57:52;;;;;;;4.55;3.80;;;;;;;17.40;48.43;94980.50;4142118;28;20418;-55
2022/05/13 00:59:54;;;;;;;6.30;4.40;;;;;;;17.42;48.70;94983.78;4140461;28;20053;-58
2022/05/13 01:01:56;;;;;;;4.97;3.70;;;;;;;17.42;48.75;94982.97;4140590;28;20258;-56
2022/05/13 01:04:05;;;;;;;5.88;3.97;;;;;;;17.38;49.07;94988.66;4141718;28;20062;-54
2022/05/13 01:06:12;;;;;;;7.05;4.10;;;;;;;17.28;49.57;94990.81;4141120;28;20471;-54
2022/05/13 01:08:15;;;;;;;6.82;4.03;;;;;;;17.17;49.91;94986.88;4141878;28;20085;-53
2022/05/13 01:10:20;;;;;;;7.40;4.10;;;;;;;17.12;50.11;94989.28;4145014;28;20485;-55
2022/05/13 01:12:25;;;;;;;6.60;4.38;;;;;;;17.10;50.32;94991.31;4142562;28;20139;-56
2022/05/13 01:14:34;;;;;;;5.35;3.97;;;;;;;17.11;50.15;94984.19;4143286;28;20108;-55
2022/05/13 01:18:57;;;;;;;4.88;3.88;;;;;;;17.09;50.28;94981.72;4144692;28;20128;-56
2022/05/13 01:20:59;;;;;;;8.05;4.65;;;;;;;17.10;50.03;94980.72;4144326;28;20096;-53
2022/05/13 01:23:09;;;;;;;6.68;4.30;;;;;;;17.09;49.88;94973.78;4143257;28;20053;-55
2022/05/13 01:25:13;;;;;;;6.43;4.40;;;;;;;17.11;49.69;94978.91;4144721;28;20120;-54
2022/05/13 01:27:15;;;;;;;8.25;4.57;;;;;;;17.11;49.67;94979.69;4145052;28;20050;-54
2022/05/13 01:29:17;;;;;;;10.07;4.22;;;;;;;17.11;49.89;94977.06;4144671;28;20050;-55
2022/05/13 01:33:43;;;;;;;6.43;3.97;;;;;;;17.12;49.51;94967.28;4134792;28;20402;-56
2022/05/13 01:35:48;;;;;;;7.20;3.88;;;;;;;17.08;49.31;94972.16;4144777;28;20054;-54
2022/05/13 01:37:50;;;;;;;6.22;4.03;;;;;;;17.01;50.24;94965.97;4144052;28;20054;-52
2022/05/13 01:39:53;;;;;;;7.85;4.55;;;;;;;16.92;50.55;94967.94;4142245;28;20406;-55
2022/05/13 01:41:54;;;;;;;7.25;4.22;;;;;;;16.88;51.55;94963.22;4143034;28;20053;-54
2022/05/13 01:43:57;;;;;;;5.20;4.18;;;;;;;16.72;50.52;94967.75;4139755;28;20065;-62
2022/05/13 01:45:58;;;;;;;8.45;4.65;;;;;;;16.50;50.65;94966.16;4143431;28;20414;-55
2022/05/13 01:48:00;;;;;;;9.43;4.53;;;;;;;16.14;51.93;94959.88;4144065;28;20038;-56
2022/05/13 01:50:03;;;;;;;6.18;4.30;;;;;;;15.84;52.12;94955.69;4142952;28;20676;-54
2022/05/13 01:52:05;;;;;;;5.85;3.90;;;;;;;15.73;52.13;94954.31;4144246;28;20150;-56
2022/05/13 01:54:07;;;;;;;9.45;4.03;;;;;;;15.77;52.13;94952.97;4142645;28;20124;-55
2022/05/13 01:56:09;;;;;;;5.72;4.60;;;;;;;15.73;52.54;94960.44;4144249;28;20107;-55
2022/05/13 01:58:19;;;;;;;9.07;4.30;;;;;;;15.62;51.83;94952.94;4144203;28;20054;-54
2022/05/13 02:00:22;;;;;;;6.80;4.07;;;;;;;15.54;52.35;94953.84;4144347;28;20056;-53
2022/05/13 02:02:23;;;;;;;9.57;4.10;;;;;;;15.49;52.06;94950.94;4144270;28;20107;-55
2022/05/13 02:04:25;;;;;;;6.45;3.72;;;;;;;15.35;51.99;94954.41;4143831;28;20054;-54
2022/05/13 02:06:28;;;;;;;5.82;4.07;;;;;;;15.18;53.46;94953.75;4144003;28;20054;-54
2022/05/13 02:08:31;;;;;;;9.68;3.90;;;;;;;15.30;53.33;94949.69;4142615;28;20072;-56
2022/05/13 02:10:33;;;;;;;6.70;3.90;;;;;;;15.49;52.67;94953.59;4141969;28;20049;-56
2022/05/13 02:12:34;;;;;;;8.77;4.10;;;;;;;15.68;52.09;94954.84;4143973;28;20490;-53
2022/05/13 02:14:36;;;;;;;4.85;3.60;;;;;;;15.77;51.92;94958.25;4144218;28;20192;-56
2022/05/13 02:16:38;;;;;;;9.15;4.00;;;;;;;15.72;52.00;94964.09;4143796;28;20042;-57
2022/05/13 02:18:40;;;;;;;7.22;4.35;;;;;;;15.46;51.71;94971.59;4143177;28;20128;-55
2022/05/13 02:20:42;;;;;;;12.30;4.47;;;;;;;15.40;51.95;94965.25;4143592;28;20058;-56
2022/05/13 02:22:44;;;;;;;8.00;4.05;;;;;;;15.44;51.90;94969.13;4143665;28;20108;-54
2022/05/13 02:24:46;;;;;;;6.85;4.45;;;;;;;15.50;51.69;94972.88;4142479;28;20115;-56
2022/05/13 02:26:47;;;;;;;8.82;4.35;;;;;;;15.55;52.05;94970.50;4143826;28;20139;-56
2022/05/13 02:28:50;;;;;;;6.93;3.88;;;;;;;15.57;51.91;94972.00;4143902;28;20054;-53
2022/05/13 02:30:52;;;;;;;9.07;4.25;;;;;;;15.71;51.91;94980.06;4144073;28;20050;-55
2022/05/13 02:32:54;;;;;;;11.90;4.30;;;;;;;15.85;51.24;94983.72;4143595;28;20060;-56
2022/05/13 02:34:56;;;;;;;9.23;4.10;;;;;;;15.92;51.40;94974.88;4143758;28;20367;-55
2022/05/13 02:36:57;;;;;;;6.28;4.18;;;;;;;16.00;51.19;94975.78;4143501;28;20395;-54
2022/05/13 02:38:59;;;;;;;8.75;4.28;;;;;;;16.05;50.88;94979.50;4142241;28;20438;-57
2022/05/13 02:41:13;;;;;;;5.22;3.75;;;;;;;16.06;50.67;94978.47;4143670;28;20096;-56
2022/05/13 02:43:15;;;;;;;5.13;3.92;;;;;;;16.11;50.42;94977.91;4143632;28;20145;-59
2022/05/13 02:45:17;;;;;;;7.00;4.13;;;;;;;16.15;50.65;94976.53;4138768;28;20077;-54
2022/05/13 02:47:19;;;;;;;9.90;5.65;;;;;;;16.11;51.59;94978.75;4127572;28;20089;-55
2022/05/13 02:49:21;;;;;;;5.97;4.47;;;;;;;16.13;51.33;94983.84;4126752;28;20126;-57
2022/05/13 02:51:24;;;;;;;11.35;4.32;;;;;;;16.12;51.07;94984.88;4127373;28;20058;-54
2022/05/13 02:53:26;;;;;;;8.18;3.72;;;;;;;16.13;51.12;94981.19;4125660;28;20050;-54
2022/05/13 02:55:28;;;;;;;8.10;4.32;;;;;;;16.14;51.17;94981.03;4127172;28;20046;-55
2022/05/13 02:57:29;;;;;;;6.80;4.70;;;;;;;16.14;51.58;94977.56;4127173;28;20054;-55
2022/05/13 02:59:31;;;;;;;5.88;4.20;;;;;;;16.11;51.70;94977.91;4127247;28;20055;-56
2022/05/13 03:01:33;;;;;;;6.45;4.72;;;;;;;16.02;52.38;94977.22;4126935;28;20433;-56
2022/05/13 03:03:38;;;;;;;5.82;4.53;;;;;;;16.02;52.45;94979.03;4126882;28;20058;-54
2022/05/13 03:05:40;;;;;;;8.68;4.47;;;;;;;16.04;52.44;94984.97;4135127;28;20065;-51
2022/05/13 03:07:41;;;;;;;7.38;4.93;;;;;;;16.00;52.58;94978.41;4143431;28;20514;-51
2022/05/13 03:09:44;;;;;;;9.20;4.70;;;;;;;15.96;52.81;94973.50;4141718;28;20486;-54
2022/05/13 03:11:46;;;;;;;7.55;4.72;;;;;;;15.96;53.11;94973.50;4142989;28;20115;-54
2022/05/13 03:13:49;;;;;;;7.05;4.63;;;;;;;15.95;53.03;94977.13;4143036;28;20100;-56
2022/05/13 03:15:50;;;;;;;7.97;4.73;;;;;;;15.96;53.17;94975.34;4143429;28;20066;-55
2022/05/13 03:17:52;;;;;;;8.93;5.00;;;;;;;15.89;53.60;94977.88;4142843;28;20554;-52
2022/05/13 03:19:54;;;;;;;9.60;5.13;;;;;;;15.88;53.53;94983.38;4142409;28;20049;-55
2022/05/13 03:21:56;;;;;;;10.63;5.20;;;;;;;15.84;53.64;94980.25;4142936;28;20414;-55
2022/05/13 03:23:58;;;;;;;11.55;6.18;;;;;;;15.83;53.97;94991.84;4141653;28;20124;-55
2022/05/13 03:25:59;;;;;;;9.68;5.45;;;;;;;15.88;53.93;94991.28;4142744;28;20053;-54
2022/05/13 03:28:01;;;;;;;9.80;5.60;;;;;;;15.84;53.61;94990.84;4142808;28;20057;-56
2022/05/13 03:30:04;;;;;;;17.33;6.15;;;;;;;15.83;54.01;94997.13;4156918;28;20508;-53
2022/05/13 03:32:07;;;;;;;8.55;5.68;;;;;;;15.84;54.22;94998.75;4143035;28;20115;-55
2022/05/13 03:34:09;;;;;;;12.18;5.70;;;;;;;15.82;54.24;94994.66;4142331;28;20051;-54
2022/05/13 03:36:12;;;;;;;13.18;6.07;;;;;;;15.80;54.32;94997.47;4142206;28;20089;-54
2022/05/13 03:38:14;;;;;;;10.57;5.35;;;;;;;15.84;54.14;94998.75;4141342;28;20359;-55
2022/05/13 03:40:17;;;;;;;12.45;5.32;;;;;;;15.91;54.27;94997.00;4142931;28;20054;-53
2022/05/13 03:42:20;;;;;;;12.88;5.40;;;;;;;15.99;54.15;95000.56;4142666;28;20394;-55
2022/05/13 03:44:22;;;;;;;8.25;5.50;;;;;;;16.08;54.48;94994.97;4142244;28;20057;-55
2022/05/13 03:46:24;;;;;;;14.80;6.25;;;;;;;16.21;54.55;95004.06;4141154;28;20050;-54
2022/05/13 03:48:26;;;;;;;8.55;5.35;;;;;;;16.25;54.32;94992.94;4135404;28;20056;-54
2022/05/13 03:50:28;;;;;;;10.82;5.85;;;;;;;16.29;54.01;95002.13;4126429;28;20515;-51
2022/05/13 03:52:30;;;;;;;8.98;6.15;;;;;;;16.33;53.77;95002.59;4126288;28;20100;-55
2022/05/13 03:54:32;;;;;;;11.07;5.55;;;;;;;16.41;53.63;95002.44;4124789;28;20054;-53
2022/05/13 03:56:33;;;;;;;10.52;5.45;;;;;;;16.46;53.30;95010.66;4126038;28;20158;-56
2022/05/13 03:58:36;;;;;;;12.98;6.45;;;;;;;16.44;53.22;95011.84;4124897;28;20160;-52
2022/05/13 04:00:38;;;;;;;16.25;6.38;;;;;;;16.31;53.79;95015.16;4126126;28;20085;-53
2022/05/13 04:02:40;;;;;;;14.75;6.82;;;;;;;16.27;54.12;95016.53;4125950;28;20136;-51
2022/05/13 04:09:22;;;;;;;11.00;5.85;;;;;;;16.54;53.54;95022.91;4140958;28;20053;-56
2022/05/13 04:11:25;;;;;;;12.95;6.35;;;;;;;16.61;53.50;95026.47;4142488;28;20374;-57
2022/05/13 04:16:06;;;;;;;10.68;6.28;;;;;;;16.78;53.31;95030.50;4142487;28;20168;-56
2022/05/13 04:18:07;;;;;;;9.50;6.38;;;;;;;16.87;53.21;95031.22;4141824;28;20187;-55
2022/05/13 04:20:09;;;;;;;9.52;6.13;;;;;;;16.95;53.09;95032.91;4140866;28;20451;-56
2022/05/13 04:22:13;;;;;;;13.38;7.47;;;;;;;17.00;52.68;95038.47;4142123;28;20616;-54
2022/05/13 04:24:17;;;;;;;13.23;7.32;;;;;;;17.07;52.68;95039.31;4140855;28;20128;-54
2022/05/13 04:26:19;;;;;;;11.55;7.50;;;;;;;17.16;52.23;95032.91;4142264;28;20136;-54
2022/05/13 04:28:21;;;;;;;10.48;7.07;;;;;;;17.24;52.20;95028.47;4142273;28;20541;-53
2022/05/13 04:30:23;;;;;;;15.00;6.45;;;;;;;17.35;52.00;95027.94;4142377;28;20073;-55
2022/05/13 04:32:24;;;;;;;12.40;6.93;;;;;;;17.39;51.80;95027.34;4142025;28;20494;-52
2022/05/13 04:34:28;;;;;;;10.73;6.82;;;;;;;17.43;51.22;95032.28;4140474;28;20156;-53
2022/05/13 04:36:30;;;;;;;12.27;7.38;;;;;;;17.50;51.09;95033.94;4142174;28;20596;-54
2022/05/13 04:38:32;;;;;;;17.55;7.13;;;;;;;17.57;51.05;95034.84;4140643;28;20050;-59
2022/05/13 04:40:34;;;;;;;14.93;7.20;;;;;;;17.63;50.43;95035.06;4142334;28;20057;-54
2022/05/13 04:42:51;;;;;;;12.75;7.68;;;;;;;17.63;50.41;95035.88;4129088;28;20185;-54
2022/05/13 04:44:53;;;;;;;9.45;6.68;;;;;;;17.60;50.01;95038.91;4129158;28;20058;-55
2022/05/13 04:46:55;;;;;;;14.13;6.93;;;;;;;17.59;49.73;95042.56;4135223;28;20631;-53
2022/05/13 04:48:57;;;;;;;15.30;7.38;;;;;;;17.61;49.77;95044.00;4142551;28;20712;-56
2022/05/13 04:50:59;;;;;;;10.38;6.43;;;;;;;17.67;49.85;95039.75;4145502;28;20128;-54
2022/05/13 04:53:01;;;;;;;13.45;7.15;;;;;;;17.73;49.77;95048.78;4143968;28;20058;-53
2022/05/13 04:55:03;;;;;;;13.05;7.30;;;;;;;17.78;49.76;95043.69;4145461;28;20054;-53
2022/05/13 04:57:06;;;;;;;15.30;7.38;;;;;;;17.84;49.99;95034.19;4145168;28;20066;-54
2022/05/13 04:59:07;;;;;;;14.82;7.63;;;;;;;17.85;49.69;95039.28;4145044;28;20105;-55
2022/05/13 05:01:10;;;;;;;14.98;8.13;;;;;;;17.89;49.58;95043.19;4145132;28;20057;-55
2022/05/13 05:03:13;;;;;;;11.13;7.43;;;;;;;17.89;49.34;95047.66;4144957;28;20060;-55
2022/05/13 05:05:16;;;;;;;15.30;7.55;;;;;;;17.93;49.13;95044.41;4145378;28;20057;-59
2022/05/13 05:07:17;;;;;;;13.30;7.03;;;;;;;17.99;49.11;95038.34;4145139;28;20053;-51
2022/05/13 05:09:19;;;;;;;17.20;7.78;;;;;;;18.04;49.35;95040.41;4143692;28;20050;-54
2022/05/13 05:11:21;;;;;;;14.57;8.10;;;;;;;18.06;49.29;95043.66;4145145;28;20608;-57
2022/05/13 05:13:22;;;;;;;19.63;9.38;;;;;;;18.11;49.52;95043.06;4145189;28;20062;-55
2022/05/13 05:15:24;;;;;;;14.10;9.23;;;;;;;18.15;49.32;95039.81;4144898;28;20490;-55
2022/05/13 05:17:26;;;;;;;18.58;9.23;;;;;;;18.17;48.90;95048.41;4144915;28;20104;-57
2022/05/13 05:19:28;;;;;;;16.30;8.40;;;;;;;18.22;48.61;95047.84;4144507;28;20058;-57
2022/05/13 05:21:29;;;;;;;16.45;8.45;;;;;;;18.26;48.72;95056.19;4144522;28;20344;-57
2022/05/13 05:23:33;;;;;;;14.00;9.32;;;;;;;18.14;49.06;95051.47;4143389;28;20455;-56
2022/05/13 05:25:35;;;;;;;;;;;;;;;18.10;48.96;95049.41;4145341;28;20399;-56
2022/05/13 05:27:37;;;;;;;12.45;8.50;;;;;;;18.15;48.90;95052.28;4144788;28;20309;-55
2022/05/13 05:29:39;;;;;;;10.73;8.38;;;;;;;18.17;48.80;95050.25;4144746;28;20054;-52
2022/05/13 05:31:40;;;;;;;12.90;9.65;;;;;;;18.15;48.70;95055.75;4144935;28;20054;-56
2022/05/13 05:33:42;;;;;;;11.68;8.40;;;;;;;18.13;48.38;95049.84;4144493;28;20113;-52
2022/05/13 05:35:44;;;;;;;13.77;8.57;;;;;;;18.19;48.20;95053.53;4144366;28;20375;-56
2022/05/13 05:37:46;;;;;;;13.52;8.40;;;;;;;18.30;48.44;95055.59;4144443;28;20116;-52
2022/05/13 05:39:48;;;;;;;13.18;8.95;;;;;;;18.44;48.14;95053.84;4143174;28;20123;-58
2022/05/13 05:41:49;;;;;;;12.43;9.18;;;;;;;18.53;47.85;95051.81;4144634;28;20061;-56
2022/05/13 05:43:51;;;;;;;11.85;7.70;;;;;;;18.60;47.66;95050.00;4144360;28;20061;-53
2022/05/13 05:45:53;;;;;;;13.45;8.60;;;;;;;18.63;47.75;95049.59;4144175;28;20060;-54
2022/05/13 05:47:55;;;;;;;13.40;9.00;;;;;;;18.61;48.20;95049.78;4138614;28;20076;-55
2022/05/13 05:49:58;;;;;;;16.90;9.18;;;;;;;18.70;48.24;95050.44;4143929;28;20426;-55
2022/05/13 05:52:00;;;;;;;14.40;7.88;;;;;;;18.79;47.79;95049.25;4144604;28;20208;-56
2022/05/13 05:58:42;;;;;;;18.55;10.05;;;;;;;18.69;47.02;95048.81;4144087;28;20242;-54
2022/05/13 06:00:48;;;;;;;13.25;9.18;;;;;;;18.52;47.25;95047.50;4144463;28;20053;-54
2022/05/13 06:02:49;;;;;;;13.65;9.18;;;;;;;18.32;47.53;95042.97;4144193;28;20054;-55
2022/05/13 06:04:51;;;;;;;17.67;9.38;;;;;;;18.28;48.09;95041.72;4144107;28;20061;-56
2022/05/13 06:06:53;;;;;;;17.83;9.75;;;;;;;18.37;48.01;95040.53;4144387;28;20058;-56
2022/05/13 06:08:55;;;;;;;15.63;9.00;;;;;;;18.52;48.11;95040.41;4142702;28;20053;-53
2022/05/13 06:10:57;;;;;;;15.25;9.90;;;;;;;18.65;47.41;95031.66;4144277;28;20506;-55
2022/05/13 06:12:58;;;;;;;15.77;9.27;;;;;;;18.78;47.35;95037.00;4144108;28;21112;-56
2022/05/13 06:15:02;;;;;;;14.52;9.80;;;;;;;18.90;47.33;95042.53;4144336;28;20120;-55
2022/05/13 06:17:03;;;;;;;14.95;9.40;;;;;;;18.98;47.05;95042.34;4142835;28;20532;-51
2022/05/13 06:19:05;;;;;;;14.00;9.32;;;;;;;19.14;47.10;95038.47;4143916;28;20473;-55
2022/05/13 06:21:07;;;;;;;14.05;8.98;;;;;;;19.32;46.76;95029.09;4143810;28;20655;-55
2022/05/13 06:23:09;;;;;;;19.88;9.90;;;;;;;19.50;46.31;95023.94;4142572;28;20092;-60
2022/05/13 06:25:12;;;;;;;12.57;9.13;;;;;;;19.65;46.26;95027.19;4144018;28;20526;-53
2022/05/13 06:27:14;;;;;;;21.52;10.65;;;;;;;19.80;45.95;95026.19;4143675;28;20518;-56
2022/05/13 06:29:21;;;;;;;15.93;9.95;;;;;;;19.77;45.53;95024.75;4144158;28;20448;-52
2022/05/13 06:31:23;;;;;;;16.95;9.88;;;;;;;19.74;45.62;95019.84;4143809;28;20107;-54
2022/05/13 06:33:25;;;;;;;19.45;9.55;;;;;;;19.78;45.48;95020.25;4143710;28;20050;-53
2022/05/13 06:35:30;;;;;;;12.45;8.77;;;;;;;19.85;45.57;95013.06;4143876;28;20152;-55
2022/05/13 06:37:31;;;;;;;14.95;8.93;;;;;;;19.87;45.66;95016.31;4143805;28;20498;-53
2022/05/13 06:39:33;;;;;;;17.08;9.63;;;;;;;19.75;45.35;95021.50;4142214;28;20123;-53
2022/05/13 06:41:40;;;;;;;13.90;9.63;;;;;;;19.74;45.50;95019.03;4143427;28;20433;-54
2022/05/13 06:43:42;;;;;;;20.73;9.02;;;;;;;19.87;45.55;95018.19;4143556;28;20133;-54
2022/05/13 06:45:43;;;;;;;16.88;8.93;;;;;;;20.04;45.45;95020.16;4143632;28;20050;-53
2022/05/13 06:47:45;;;;;;;16.83;9.23;;;;;;;20.23;44.93;95017.66;4141772;28;20057;-52
2022/05/13 06:49:47;;;;;;;17.70;8.48;;;;;;;20.39;44.88;95019.84;4139119;28;20046;-54
2022/05/13 06:51:49;;;;;;;14.55;9.77;;;;;;;20.43;44.18;95015.72;4143617;28;20473;-55
2022/05/13 06:53:51;;;;;;;13.20;8.95;;;;;;;20.50;43.96;95018.34;4141848;28;20072;-55
2022/05/13 06:55:52;;;;;;;15.32;9.02;;;;;;;20.49;44.16;95019.38;4143575;28;20475;-56
2022/05/13 06:57:54;;;;;;;14.88;8.90;;;;;;;20.50;43.63;95009.53;4143351;28;20097;-52
2022/05/13 06:59:56;;;;;;;15.50;8.25;;;;;;;20.23;44.03;95007.81;4143528;28;20065;-55
2022/05/13 07:01:58;;;;;;;18.10;7.60;;;;;;;20.07;44.58;95007.47;4143445;28;20369;-54
2022/05/13 07:03:59;;;;;;;11.52;8.00;;;;;;;20.19;44.00;94997.81;4143133;28;20153;-52
2022/05/13 07:06:01;;;;;;;12.43;7.78;;;;;;;20.34;43.69;95006.34;4143535;28;20053;-53
2022/05/13 07:08:03;;;;;;;12.00;8.50;;;;;;;20.52;43.54;95002.16;4141688;28;20108;-50
2022/05/13 07:10:06;;;;;;;13.88;8.18;;;;;;;20.67;42.90;95000.03;4143409;28;20184;-51
2022/05/13 07:12:09;;;;;;;12.43;8.88;;;;;;;20.81;42.58;94998.94;4143317;28;20092;-54
2022/05/13 07:14:11;;;;;;;10.75;8.05;;;;;;;20.99;42.76;95005.34;4143250;28;20135;-56
2022/05/13 07:16:13;;;;;;;12.25;8.25;;;;;;;20.91;42.45;95000.28;4143442;28;20601;-52
2022/05/13 07:18:15;;;;;;;16.63;7.82;;;;;;;20.95;42.08;95005.00;4142673;28;20054;-55
2022/05/13 07:20:17;;;;;;;14.73;7.95;;;;;;;20.85;42.15;95002.78;4143058;28;20120;-53
2022/05/13 07:22:20;;;;;;;15.85;9.13;;;;;;;20.93;42.15;95000.88;4142940;28;20076;-54
2022/05/13 07:24:23;;;;;;;15.05;9.27;;;;;;;20.71;42.59;95001.25;4141426;28;20151;-51
2022/05/13 07:26:26;;;;;;;12.35;8.73;;;;;;;20.57;42.80;94997.03;4142865;28;20068;-58
2022/05/13 07:28:27;;;;;;;10.35;9.23;;;;;;;20.47;42.83;94992.16;4142855;28;20483;-57
2022/05/13 07:30:29;;;;;;;18.13;9.57;;;;;;;20.63;42.76;94993.53;4143121;28;20575;-53
2022/05/13 07:32:31;;;;;;;17.75;8.88;;;;;;;20.72;42.20;94997.56;4142876;28;20127;-54
2022/05/13 07:34:33;;;;;;;14.40;8.85;;;;;;;20.62;42.82;94999.88;4141877;28;20050;-55
2022/05/13 07:36:35;;;;;;;14.68;8.48;;;;;;;20.56;42.70;94992.72;4141733;28;20499;-54
2022/05/13 07:41:16;;;;;;;14.45;7.55;;;;;;;20.70;43.03;94996.97;4139679;28;20057;-51
2022/05/13 07:41:17;;;;;;;17.02;9.15;;;;;;;21.01;42.82;94989.97;4142565;28;20049;-54
2022/05/13 07:43:18;;;;;;;13.48;8.10;;;;;;;21.27;42.40;94991.59;4142452;28;20065;-52
2022/05/13 07:45:20;;;;;;;12.48;8.40;;;;;;;21.45;41.78;94986.34;4142809;28;20050;-57
2022/05/13 07:47:22;;;;;;;14.48;8.23;;;;;;;21.47;41.32;94981.63;4142529;28;20054;-54
2022/05/13 07:49:24;;;;;;;15.18;9.43;;;;;;;21.50;41.31;94979.56;4138744;28;20515;-54
2022/05/13 07:51:26;;;;;;;16.50;8.63;;;;;;;21.51;41.48;94982.00;4139099;28;20050;-56
2022/05/13 07:53:28;;;;;;;20.20;11.27;;;;;;;21.53;41.22;94979.94;4141205;28;20153;-51
2022/05/13 07:55:30;;;;;;;17.00;9.90;;;;;;;21.44;41.60;94973.25;4141894;28;20734;-55
2022/05/13 07:57:31;;;;;;;13.32;8.10;;;;;;;21.36;41.39;94973.50;4131942;28;20054;-54
2022/05/13 08:00:24;;;;;;;18.75;9.75;;;;;;;21.37;41.22;94973.28;4126397;28;20193;-55
2022/05/13 08:01:59;;;;;;;12.52;8.20;;;;;;;21.43;41.28;94974.28;4126302;28;20205;-56
2022/05/13 08:04:01;;;;;;;12.65;7.78;;;;;;;21.70;41.18;94968.69;4126060;28;20124;-55
2022/05/13 08:06:04;;;;;;;13.77;7.15;;;;;;;21.79;41.35;94970.00;4126352;28;20116;-59
2022/05/13 08:08:09;;;;;;;14.52;7.18;;;;;;;21.88;40.87;94964.16;4124770;28;20065;-54
2022/05/13 08:10:13;;;;;;;11.10;6.68;;;;;;;21.96;41.58;94965.72;4126119;28;20043;-52
2022/05/13 08:12:15;;;;;;;12.18;7.30;;;;;;;22.19;40.70;94964.22;4126395;28;20089;-54
2022/05/13 08:14:17;;;;;;;13.52;7.35;;;;;;;22.38;40.40;94955.16;4126384;28;20058;-57
2022/05/13 08:16:25;;;;;;;13.90;7.30;;;;;;;22.55;39.90;94965.22;4125921;28;20050;-57
2022/05/13 08:18:26;;;;;;;10.68;7.13;;;;;;;22.72;39.68;94957.38;4126039;28;20428;-57
2022/05/13 08:20:28;;;;;;;13.95;7.35;;;;;;;22.72;38.57;94950.16;4134687;28;20057;-53
2022/05/13 08:22:30;;;;;;;15.77;7.07;;;;;;;22.60;38.91;94952.78;4142565;28;20054;-56
2022/05/13 08:24:31;;;;;;;12.48;7.70;;;;;;;22.47;38.94;94953.00;4140737;28;20066;-57
2022/05/13 08:26:33;;;;;;;13.73;7.57;;;;;;;22.38;39.05;94952.50;4142629;28;20054;-55
2022/05/13 08:28:35;;;;;;;12.30;7.05;;;;;;;22.35;39.13;94952.97;4142426;28;20525;-56
2022/05/13 08:30:37;;;;;;;14.32;7.47;;;;;;;22.54;39.15;94948.34;4142585;28;20045;-55
2022/05/13 08:32:39;;;;;;;15.48;7.45;;;;;;;22.79;38.78;94950.88;4142507;28;20131;-55
2022/05/13 08:34:41;;;;;;;10.27;6.60;;;;;;;22.74;39.10;94949.94;4142096;28;20111;-55
2022/05/13 08:37:03;;;;;;;9.90;6.53;;;;;;;22.67;38.88;94948.19;4142554;28;20385;-53
2022/05/13 08:39:04;;;;;;;10.13;6.72;;;;;;;22.61;39.70;94940.28;4140779;28;20050;-57
2022/05/13 08:41:08;;;;;;;10.63;6.95;;;;;;;22.54;39.28;94944.88;4142687;28;20565;-52
2022/05/13 08:43:13;;;;;;;21.48;7.03;;;;;;;22.65;39.35;94938.75;4142326;28;20124;-52
2022/05/13 08:45:17;;;;;;;13.82;6.60;;;;;;;22.75;38.29;94933.69;4141015;28;20049;-54
2022/05/13 08:47:48;;;;;;;10.05;5.82;;;;;;;22.93;38.60;94931.97;4142474;28;20096;-50
2022/05/13 08:49:51;;;;;;;12.05;6.80;;;;;;;22.78;38.81;94938.56;4124298;28;20061;-56
2022/05/13 08:53:06;;;;;;;10.52;5.65;;;;;;;22.70;38.47;94934.38;4132719;28;20278;-54
2022/05/13 08:54:37;;;;;;;11.50;5.93;;;;;;;22.67;38.87;94942.00;4124616;28;20519;-57
2022/05/13 08:56:38;;;;;;;11.35;5.38;;;;;;;22.51;39.11;94935.47;4126025;28;20207;-57
2022/05/13 08:58:42;;;;;;;10.40;5.57;;;;;;;22.71;38.98;94937.84;4125968;28;20124;-59
2022/05/13 09:03:13;;;;;;;15.95;4.80;;;;;;;23.44;37.91;94927.81;4125899;28;20487;-51
2022/05/13 09:05:23;;;;;;;7.93;5.47;;;;;;;23.75;37.87;94917.78;4126073;28;20208;-54
2022/05/13 09:07:25;;;;;;;10.98;5.22;;;;;;;23.75;37.05;94920.44;4125757;28;20391;-54
2022/05/13 09:09:28;;;;;;;13.10;5.80;;;;;;;23.74;37.23;94914.28;4124359;28;20051;-54
2022/05/13 09:11:30;;;;;;;9.50;5.40;;;;;;;23.73;37.27;94918.03;4125561;28;20054;-56
2022/05/13 09:13:56;;;;;;;12.77;5.85;;;;;;;23.77;36.93;94907.69;4125138;28;20116;-54
2022/05/13 09:15:58;;;;;;;10.98;5.70;;;;;;;23.70;36.83;94907.78;4125323;28;20061;-55
2022/05/13 09:18:14;;;;;;;9.87;5.40;;;;;;;23.71;37.03;94904.88;4140050;28;20054;-58
2022/05/13 09:20:18;;;;;;;12.80;5.65;;;;;;;23.83;36.61;94902.22;4132025;28;20132;-55
2022/05/13 09:22:20;;;;;;;13.85;5.70;;;;;;;23.96;37.17;94906.47;4139571;28;20155;-53
2022/05/13 09:24:22;;;;;;;10.90;5.18;;;;;;;24.21;36.75;94905.34;4139769;28;20294;-55
2022/05/13 09:26:26;;;;;;;11.95;4.95;;;;;;;24.36;35.78;94900.28;4141814;28;20124;-55
2022/05/13 09:28:30;;;;;;;10.23;4.78;;;;;;;24.20;35.10;94896.53;4142789;28;20050;-53
2022/05/13 09:30:40;;;;;;;13.27;5.65;;;;;;;24.21;35.18;94894.66;4144724;28;20682;-54
2022/05/13 09:32:42;;;;;;;8.02;5.20;;;;;;;24.43;36.24;94895.56;4143036;28;20135;-54
2022/05/13 09:35:05;;;;;;;17.48;6.57;;;;;;;24.62;36.14;94887.38;4144476;28;20054;-53
2022/05/13 09:37:17;;;;;;;11.05;5.00;;;;;;;24.81;35.57;94880.72;4144470;28;20050;-52
2022/05/13 09:39:24;;;;;;;10.93;5.20;;;;;;;24.91;34.68;94874.72;4126929;28;20439;-54
2022/05/13 09:41:34;;;;;;;11.45;4.90;;;;;;;25.11;35.40;94874.22;4135233;28;20687;-56
2022/05/13 09:43:42;;;;;;;8.30;5.15;;;;;;;25.29;34.87;94865.91;4144642;28;20136;-54
2022/05/13 09:45:44;;;;;;;6.53;4.68;;;;;;;25.42;33.82;94862.06;4144475;28;20234;-52
2022/05/13 09:48:06;;;;;;;10.98;5.07;;;;;;;25.48;34.13;94860.28;4144541;28;20136;-54
2022/05/13 09:50:25;;;;;;;11.25;4.85;;;;;;;25.34;33.38;94857.94;4144367;28;20128;-55
2022/05/13 09:52:31;;;;;;;8.38;4.80;;;;;;;25.18;32.94;94853.41;4139375;28;20046;-57
2022/05/13 09:54:35;;;;;;;10.32;4.35;;;;;;;24.80;33.32;94848.81;4125128;28;20050;-55
2022/05/13 09:56:43;;;;;;;8.35;4.03;;;;;;;24.58;33.79;94844.19;4143755;28;20062;-53